首页
METAR-TAF:

METAR-TAF

机场 :

Salluit, 魁北克, 加拿大

纬度: 62-11N, 经度: 075-40W, 海拔: 226米

当前天气观测

该预报发布于13小时和29分钟前的22:00 UTC
风速16节,风向,有时为21节阵风
温度 -9°C
湿度 92%
气压 993 hPa
能見度: 0.4公里
雪, 高吹雪

METAR: CYZG 172200Z 36016G21KT 1/4SM SN BLSN VV004 M09/M10 A2932 RMK BLSN8 SNW CVR/MUCHLOOSE/LAST STFD OBS/181300 UTC SLP952

时间: 06:29 (11:29 UTC)

预报

该预报发布于20小时和51分钟前的14:38 UTC
预报有效从17日的 15点(UTC)到 17日的 22点(UTC)
风速20节,风向北转东北,有时为30节阵风
能見度: 0.2公里
层高于100英尺
雪, 高吹雪
短暂存在
从 17日的 15点(UTC)到 17日的 22点(UTC)
能見度: 3.2公里
层高于800英尺
高吹雪

TAF: CYZG 171438Z 1715/1722 03020G30KT 1/8SM SN BLSN VV001 TEMPO 1715/1722 2SM BLSN VV008 RMK NXT FCST WILL BE ISSUED AT 181445Z

超过4000个机场的气象观测和天气预报(METAR&TAF报告)。

可查询的气象台以黄色和红色小点在地图上表示。

将鼠标移到小点上方,可查看气象台名称。

然后点击查看天气观测和预报。

如需切换地图:点击带黑十字的绿色按钮放大地图;点击带横线的绿色按钮缩小地图;或者点击绿色箭头查看邻近地区的地图。


METAR-TAF: